sensor_id;sensor_type;location;lat;lon;timestamp;pressure;altitude;pressure_sealevel;temperature;humidity
6942;BME280;3510;43.200;27.920;2023-02-16T00:00:24;102525.88;;;8.69;45.14
6942;BME280;3510;43.200;27.920;2023-02-16T00:02:53;102532.81;;;8.51;45.15
6942;BME280;3510;43.200;27.920;2023-02-16T00:05:22;102461.44;;;7.59;47.94
6942;BME280;3510;43.200;27.920;2023-02-16T00:07:50;102512.19;;;7.78;48.46
6942;BME280;3510;43.200;27.920;2023-02-16T00:10:17;102531.28;;;7.90;48.69
6942;BME280;3510;43.200;27.920;2023-02-16T00:12:45;102527.81;;;8.16;47.28
6942;BME280;3510;43.200;27.920;2023-02-16T00:15:27;102467.94;;;7.71;47.42
6942;BME280;3510;43.200;27.920;2023-02-16T00:17:56;102511.75;;;7.87;48.52
6942;BME280;3510;43.200;27.920;2023-02-16T00:20:24;102512.75;;;7.82;48.60
6942;BME280;3510;43.200;27.920;2023-02-16T00:22:50;102459.66;;;7.58;48.15
6942;BME280;3510;43.200;27.920;2023-02-16T00:25:17;102527.53;;;8.00;48.45
6942;BME280;3510;43.200;27.920;2023-02-16T00:27:44;102530.34;;;7.89;49.01
6942;BME280;3510;43.200;27.920;2023-02-16T00:30:13;102403.91;;;7.73;47.94
6942;BME280;3510;43.200;27.920;2023-02-16T00:32:42;102524.06;;;7.86;49.16
6942;BME280;3510;43.200;27.920;2023-02-16T00:35:13;102490.84;;;7.13;49.85
6942;BME280;3510;43.200;27.920;2023-02-16T00:37:40;102496.97;;;6.82;50.10
6942;BME280;3510;43.200;27.920;2023-02-16T00:40:07;102508.41;;;7.20;49.93
6942;BME280;3510;43.200;27.920;2023-02-16T00:42:35;102525.09;;;7.26;49.41
6942;BME280;3510;43.200;27.920;2023-02-16T00:45:03;102522.31;;;7.38;49.80
6942;BME280;3510;43.200;27.920;2023-02-16T00:47:35;102513.50;;;7.27;49.54
6942;BME280;3510;43.200;27.920;2023-02-16T00:50:13;102469.97;;;6.99;49.70
6942;BME280;3510;43.200;27.920;2023-02-16T00:52:42;102453.16;;;6.98;48.67
6942;BME280;3510;43.200;27.920;2023-02-16T00:55:13;102506.59;;;7.19;49.38
6942;BME280;3510;43.200;27.920;2023-02-16T00:57:42;102512.78;;;7.55;48.28
6942;BME280;3510;43.200;27.920;2023-02-16T01:00:14;102502.59;;;7.54;48.33
6942;BME280;3510;43.200;27.920;2023-02-16T01:02:43;102492.28;;;7.18;48.76
6942;BME280;3510;43.200;27.920;2023-02-16T01:05:12;102471.75;;;7.20;47.08
6942;BME280;3510;43.200;27.920;2023-02-16T01:07:39;102479.88;;;7.32;47.06
6942;BME280;3510;43.200;27.920;2023-02-16T01:10:20;102495.31;;;7.35;47.03
6942;BME280;3510;43.200;27.920;2023-02-16T01:13:00;102502.19;;;7.03;47.59
6942;BME280;3510;43.200;27.920;2023-02-16T01:15:28;102495.81;;;7.33;47.03
6942;BME280;3510;43.200;27.920;2023-02-16T01:17:55;102372.19;;;6.51;47.32
6942;BME280;3510;43.200;27.920;2023-02-16T01:20:24;102485.63;;;7.11;47.47
6942;BME280;3510;43.200;27.920;2023-02-16T01:22:51;102504.22;;;6.93;48.00
6942;BME280;3510;43.200;27.920;2023-02-16T01:25:19;102476.81;;;7.08;47.49
6942;BME280;3510;43.200;27.920;2023-02-16T01:27:46;102492.34;;;7.25;47.08
6942;BME280;3510;43.200;27.920;2023-02-16T01:30:15;102495.56;;;7.24;46.63
6942;BME280;3510;43.200;27.920;2023-02-16T01:32:42;102490.69;;;7.18;47.48
6942;BME280;3510;43.200;27.920;2023-02-16T01:35:11;102490.69;;;7.38;46.60
6942;BME280;3510;43.200;27.920;2023-02-16T01:37:39;102496.75;;;7.40;47.25
6942;BME280;3510;43.200;27.920;2023-02-16T01:40:17;102476.31;;;7.10;47.17
6942;BME280;3510;43.200;27.920;2023-02-16T01:42:49;102494.22;;;7.60;46.89
6942;BME280;3510;43.200;27.920;2023-02-16T01:45:29;102489.34;;;7.55;46.90
6942;BME280;3510;43.200;27.920;2023-02-16T01:48:02;102480.97;;;6.87;48.25
6942;BME280;3510;43.200;27.920;2023-02-16T01:50:40;102443.88;;;7.51;46.43
6942;BME280;3510;43.200;27.920;2023-02-16T01:53:17;102500.09;;;7.54;46.91
6942;BME280;3510;43.200;27.920;2023-02-16T01:55:48;102505.59;;;7.04;48.21
6942;BME280;3510;43.200;27.920;2023-02-16T01:58:25;102508.34;;;6.93;48.73
6942;BME280;3510;43.200;27.920;2023-02-16T02:03:52;102479.91;;;6.92;47.90
6942;BME280;3510;43.200;27.920;2023-02-16T02:06:33;102501.25;;;7.16;48.40
6942;BME280;3510;43.200;27.920;2023-02-16T02:09:05;102462.03;;;6.37;49.57
6942;BME280;3510;43.200;27.920;2023-02-16T02:11:38;102504.69;;;7.03;48.18
6942;BME280;3510;43.200;27.920;2023-02-16T02:14:10;102500.59;;;6.84;49.06
6942;BME280;3510;43.200;27.920;2023-02-16T02:16:38;102362.28;;;6.25;48.33
6942;BME280;3510;43.200;27.920;2023-02-16T02:19:06;102508.28;;;6.86;49.43
6942;BME280;3510;43.200;27.920;2023-02-16T02:21:51;102510.53;;;6.77;48.79
6942;BME280;3510;43.200;27.920;2023-02-16T02:27:31;102505.25;;;6.68;49.65
6942;BME280;3510;43.200;27.920;2023-02-16T02:30:10;102497.13;;;6.96;49.18
6942;BME280;3510;43.200;27.920;2023-02-16T02:32:49;102488.84;;;7.37;48.22
6942;BME280;3510;43.200;27.920;2023-02-16T02:35:31;102479.88;;;7.32;48.17
6942;BME280;3510;43.200;27.920;2023-02-16T02:38:08;102485.22;;;7.08;48.22
6942;BME280;3510;43.200;27.920;2023-02-16T02:40:46;102496.03;;;7.14;48.25
6942;BME280;3510;43.200;27.920;2023-02-16T02:43:21;102498.81;;;6.83;49.48
6942;BME280;3510;43.200;27.920;2023-02-16T02:45:53;102436.06;;;6.29;49.73
6942;BME280;3510;43.200;27.920;2023-02-16T02:48:21;102501.88;;;6.68;49.19
6942;BME280;3510;43.200;27.920;2023-02-16T02:50:51;102493.16;;;6.91;48.70
6942;BME280;3510;43.200;27.920;2023-02-16T02:53:33;102495.56;;;7.04;47.87
6942;BME280;3510;43.200;27.920;2023-02-16T02:56:02;102456.38;;;6.77;48.18
6942;BME280;3510;43.200;27.920;2023-02-16T02:58:44;102490.72;;;6.98;48.43
6942;BME280;3510;43.200;27.920;2023-02-16T03:01:22;102482.69;;;6.61;48.94
6942;BME280;3510;43.200;27.920;2023-02-16T03:03:52;102496.00;;;6.74;48.87
6942;BME280;3510;43.200;27.920;2023-02-16T03:06:24;102420.13;;;6.41;48.71
6942;BME280;3510;43.200;27.920;2023-02-16T03:08:56;102489.16;;;6.66;49.18
6942;BME280;3510;43.200;27.920;2023-02-16T03:11:27;102488.25;;;6.66;49.50
6942;BME280;3510;43.200;27.920;2023-02-16T03:14:08;102482.66;;;7.21;47.16
6942;BME280;3510;43.200;27.920;2023-02-16T03:16:38;102487.09;;;6.96;48.37
6942;BME280;3510;43.200;27.920;2023-02-16T03:19:10;102485.22;;;7.28;47.46
6942;BME280;3510;43.200;27.920;2023-02-16T03:21:52;102477.09;;;6.96;47.74
6942;BME280;3510;43.200;27.920;2023-02-16T03:24:33;102412.84;;;6.30;48.76
6942;BME280;3510;43.200;27.920;2023-02-16T03:27:16;102509.25;;;6.73;48.97
6942;BME280;3510;43.200;27.920;2023-02-16T03:29:58;102504.06;;;6.92;48.19
6942;BME280;3510;43.200;27.920;2023-02-16T03:32:28;102502.50;;;6.79;48.53
6942;BME280;3510;43.200;27.920;2023-02-16T03:34:56;102464.53;;;6.49;48.17
6942;BME280;3510;43.200;27.920;2023-02-16T03:37:23;102479.63;;;6.44;47.97
6942;BME280;3510;43.200;27.920;2023-02-16T03:39:50;102491.31;;;6.50;48.97
6942;BME280;3510;43.200;27.920;2023-02-16T03:42:27;102503.28;;;7.06;47.54
6942;BME280;3510;43.200;27.920;2023-02-16T03:44:54;102503.88;;;6.25;49.28
6942;BME280;3510;43.200;27.920;2023-02-16T03:47:22;102513.66;;;6.89;48.12
6942;BME280;3510;43.200;27.920;2023-02-16T03:49:49;102509.78;;;6.58;48.37
6942;BME280;3510;43.200;27.920;2023-02-16T03:52:16;102509.13;;;6.79;47.90
6942;BME280;3510;43.200;27.920;2023-02-16T03:54:43;102514.03;;;7.05;47.01
6942;BME280;3510;43.200;27.920;2023-02-16T03:57:09;102502.25;;;6.91;48.39
6942;BME280;3510;43.200;27.920;2023-02-16T03:59:36;102487.44;;;6.92;47.12
6942;BME280;3510;43.200;27.920;2023-02-16T04:02:03;102511.28;;;6.30;48.60
6942;BME280;3510;43.200;27.920;2023-02-16T04:04:31;102445.88;;;6.27;48.57
6942;BME280;3510;43.200;27.920;2023-02-16T04:06:58;102504.72;;;6.51;48.63
6942;BME280;3510;43.200;27.920;2023-02-16T04:09:24;102525.47;;;6.70;48.73
6942;BME280;3510;43.200;27.920;2023-02-16T04:11:51;102482.00;;;6.17;48.96
6942;BME280;3510;43.200;27.920;2023-02-16T04:14:30;102487.13;;;5.98;49.67
6942;BME280;3510;43.200;27.920;2023-02-16T04:16:56;102514.91;;;6.20;49.35
6942;BME280;3510;43.200;27.920;2023-02-16T04:19:23;102431.06;;;5.71;49.77
6942;BME280;3510;43.200;27.920;2023-02-16T04:21:51;102524.09;;;6.59;48.92
6942;BME280;3510;43.200;27.920;2023-02-16T04:24:19;102509.84;;;6.45;48.88
6942;BME280;3510;43.200;27.920;2023-02-16T04:26:45;102507.28;;;6.58;48.66
6942;BME280;3510;43.200;27.920;2023-02-16T04:29:14;102520.13;;;6.54;49.14
6942;BME280;3510;43.200;27.920;2023-02-16T04:31:41;102515.78;;;6.66;48.98
6942;BME280;3510;43.200;27.920;2023-02-16T04:34:08;102517.72;;;6.48;49.03
6942;BME280;3510;43.200;27.920;2023-02-16T04:36:34;102486.31;;;6.50;48.63
6942;BME280;3510;43.200;27.920;2023-02-16T04:39:03;102499.91;;;6.52;48.69
6942;BME280;3510;43.200;27.920;2023-02-16T04:41:29;102528.22;;;6.78;48.22
6942;BME280;3510;43.200;27.920;2023-02-16T04:43:56;102523.78;;;6.18;49.45
6942;BME280;3510;43.200;27.920;2023-02-16T04:46:23;102511.69;;;6.21;49.21
6942;BME280;3510;43.200;27.920;2023-02-16T04:48:50;102532.00;;;6.17;49.40
6942;BME280;3510;43.200;27.920;2023-02-16T04:51:17;102518.66;;;6.36;48.87
6942;BME280;3510;43.200;27.920;2023-02-16T04:53:43;102521.50;;;6.52;48.33
6942;BME280;3510;43.200;27.920;2023-02-16T04:56:12;102521.41;;;6.58;47.74
6942;BME280;3510;43.200;27.920;2023-02-16T04:58:38;102515.84;;;6.73;47.68
6942;BME280;3510;43.200;27.920;2023-02-16T05:01:06;102502.56;;;6.34;48.50
6942;BME280;3510;43.200;27.920;2023-02-16T05:03:33;102531.81;;;6.81;48.02
6942;BME280;3510;43.200;27.920;2023-02-16T05:05:59;102540.03;;;6.47;48.22
6942;BME280;3510;43.200;27.920;2023-02-16T05:08:26;102540.31;;;6.55;48.55
6942;BME280;3510;43.200;27.920;2023-02-16T05:10:53;102540.75;;;6.33;49.04
6942;BME280;3510;43.200;27.920;2023-02-16T05:13:35;102537.34;;;6.45;48.80
6942;BME280;3510;43.200;27.920;2023-02-16T05:16:18;102538.34;;;6.40;48.62
6942;BME280;3510;43.200;27.920;2023-02-16T05:18:45;102409.22;;;5.50;48.99
6942;BME280;3510;43.200;27.920;2023-02-16T05:21:12;102463.94;;;5.87;48.56
6942;BME280;3510;43.200;27.920;2023-02-16T05:23:53;102540.63;;;5.93;49.43
6942;BME280;3510;43.200;27.920;2023-02-16T05:26:20;102551.56;;;5.88;49.41
6942;BME280;3510;43.200;27.920;2023-02-16T05:28:48;102545.63;;;5.93;49.68
6942;BME280;3510;43.200;27.920;2023-02-16T05:31:14;102531.97;;;5.91;49.38
6942;BME280;3510;43.200;27.920;2023-02-16T05:33:41;102549.50;;;6.17;49.36
6942;BME280;3510;43.200;27.920;2023-02-16T05:36:08;102515.22;;;6.16;47.94
6942;BME280;3510;43.200;27.920;2023-02-16T05:38:35;102563.03;;;6.44;48.11
6942;BME280;3510;43.200;27.920;2023-02-16T05:41:03;102538.56;;;6.29;48.49
6942;BME280;3510;43.200;27.920;2023-02-16T05:43:32;102495.22;;;6.16;48.02
6942;BME280;3510;43.200;27.920;2023-02-16T05:46:05;102564.69;;;6.96;47.54
6942;BME280;3510;43.200;27.920;2023-02-16T05:48:32;102562.56;;;6.99;47.56
6942;BME280;3510;43.200;27.920;2023-02-16T05:50:59;102558.38;;;6.73;47.81
6942;BME280;3510;43.200;27.920;2023-02-16T05:53:26;102568.19;;;6.71;47.72
6942;BME280;3510;43.200;27.920;2023-02-16T05:55:55;102505.34;;;6.30;47.60
6942;BME280;3510;43.200;27.920;2023-02-16T05:58:21;102563.94;;;6.58;47.50
6942;BME280;3510;43.200;27.920;2023-02-16T06:00:48;102571.97;;;6.29;49.11
6942;BME280;3510;43.200;27.920;2023-02-16T06:03:16;102566.81;;;6.61;47.90
6942;BME280;3510;43.200;27.920;2023-02-16T06:05:46;102560.47;;;6.70;48.52
6942;BME280;3510;43.200;27.920;2023-02-16T06:08:17;102533.44;;;6.80;47.24
6942;BME280;3510;43.200;27.920;2023-02-16T06:10:44;102447.19;;;6.18;48.18
6942;BME280;3510;43.200;27.920;2023-02-16T06:13:11;102555.56;;;6.97;47.58
6942;BME280;3510;43.200;27.920;2023-02-16T06:15:38;102567.19;;;6.96;47.55
6942;BME280;3510;43.200;27.920;2023-02-16T06:18:05;102565.59;;;7.37;46.89
6942;BME280;3510;43.200;27.920;2023-02-16T06:20:33;102551.25;;;7.09;47.40
6942;BME280;3510;43.200;27.920;2023-02-16T06:22:59;102562.00;;;6.62;48.82
6942;BME280;3510;43.200;27.920;2023-02-16T06:25:26;102487.03;;;6.37;48.61
6942;BME280;3510;43.200;27.920;2023-02-16T06:27:53;102559.91;;;6.98;48.24
6942;BME280;3510;43.200;27.920;2023-02-16T06:30:21;102569.28;;;6.93;48.59
6942;BME280;3510;43.200;27.920;2023-02-16T06:32:48;102554.97;;;7.05;48.68
6942;BME280;3510;43.200;27.920;2023-02-16T06:35:15;102561.06;;;7.27;47.65
6942;BME280;3510;43.200;27.920;2023-02-16T06:37:43;102573.63;;;7.14;48.38
6942;BME280;3510;43.200;27.920;2023-02-16T06:40:11;102559.75;;;7.43;47.91
6942;BME280;3510;43.200;27.920;2023-02-16T06:42:40;102562.25;;;7.03;48.05
6942;BME280;3510;43.200;27.920;2023-02-16T06:45:08;102561.50;;;7.17;47.43
6942;BME280;3510;43.200;27.920;2023-02-16T06:47:36;102487.09;;;6.57;48.41
6942;BME280;3510;43.200;27.920;2023-02-16T06:50:04;102567.91;;;7.15;48.58
6942;BME280;3510;43.200;27.920;2023-02-16T06:52:32;102574.59;;;7.22;48.86
6942;BME280;3510;43.200;27.920;2023-02-16T06:55:00;102567.16;;;7.76;48.96
6942;BME280;3510;43.200;27.920;2023-02-16T06:57:27;102552.47;;;7.52;49.19
6942;BME280;3510;43.200;27.920;2023-02-16T06:59:54;102535.09;;;7.26;49.28
6942;BME280;3510;43.200;27.920;2023-02-16T07:02:22;102566.56;;;7.44;48.85
6942;BME280;3510;43.200;27.920;2023-02-16T07:04:49;102444.50;;;6.89;49.26
6942;BME280;3510;43.200;27.920;2023-02-16T07:07:16;102550.56;;;7.57;48.98
6942;BME280;3510;43.200;27.920;2023-02-16T07:09:44;102516.63;;;7.39;48.98
6942;BME280;3510;43.200;27.920;2023-02-16T07:12:12;102530.19;;;7.88;48.26
6942;BME280;3510;43.200;27.920;2023-02-16T07:14:39;102550.19;;;8.15;46.74
6942;BME280;3510;43.200;27.920;2023-02-16T07:17:06;102553.13;;;8.32;47.18
6942;BME280;3510;43.200;27.920;2023-02-16T07:19:33;102556.34;;;8.24;46.61
6942;BME280;3510;43.200;27.920;2023-02-16T07:22:00;102515.47;;;8.66;45.67
6942;BME280;3510;43.200;27.920;2023-02-16T07:24:27;102532.91;;;8.86;45.02
6942;BME280;3510;43.200;27.920;2023-02-16T07:26:54;102558.88;;;8.80;44.99
6942;BME280;3510;43.200;27.920;2023-02-16T07:29:22;102552.09;;;9.00;44.94
6942;BME280;3510;43.200;27.920;2023-02-16T07:31:49;102548.88;;;9.23;43.92
6942;BME280;3510;43.200;27.920;2023-02-16T07:34:18;102553.03;;;9.51;42.96
6942;BME280;3510;43.200;27.920;2023-02-16T07:36:45;102539.88;;;9.75;42.38
6942;BME280;3510;43.200;27.920;2023-02-16T07:39:11;102535.97;;;9.55;43.06
6942;BME280;3510;43.200;27.920;2023-02-16T07:41:38;102443.41;;;9.15;42.94
6942;BME280;3510;43.200;27.920;2023-02-16T07:44:05;102533.41;;;10.43;41.24
6942;BME280;3510;43.200;27.920;2023-02-16T07:46:35;102487.50;;;11.05;39.82
6942;BME280;3510;43.200;27.920;2023-02-16T07:49:16;102531.84;;;10.89;39.84
6942;BME280;3510;43.200;27.920;2023-02-16T07:51:43;102515.00;;;11.50;38.99
6942;BME280;3510;43.200;27.920;2023-02-16T07:54:10;102517.53;;;11.04;39.33
6942;BME280;3510;43.200;27.920;2023-02-16T07:56:37;102516.38;;;11.16;39.37
6942;BME280;3510;43.200;27.920;2023-02-16T07:59:04;102477.50;;;11.14;39.21
6942;BME280;3510;43.200;27.920;2023-02-16T08:01:31;102438.50;;;11.10;39.52
6942;BME280;3510;43.200;27.920;2023-02-16T08:04:01;102523.03;;;11.15;40.36
6942;BME280;3510;43.200;27.920;2023-02-16T08:06:28;102506.38;;;11.48;39.91
6942;BME280;3510;43.200;27.920;2023-02-16T08:08:55;102519.88;;;11.25;40.19
6942;BME280;3510;43.200;27.920;2023-02-16T08:11:24;102482.47;;;10.75;40.46
6942;BME280;3510;43.200;27.920;2023-02-16T08:13:51;102441.03;;;10.64;40.53
6942;BME280;3510;43.200;27.920;2023-02-16T08:16:19;102521.63;;;11.33;40.27
6942;BME280;3510;43.200;27.920;2023-02-16T08:18:47;102489.31;;;11.61;38.98
6942;BME280;3510;43.200;27.920;2023-02-16T08:21:18;102517.78;;;11.76;39.27
6942;BME280;3510;43.200;27.920;2023-02-16T08:31:33;102510.66;;;12.84;36.57
6942;BME280;3510;43.200;27.920;2023-02-16T08:34:02;102513.53;;;12.96;35.99
6942;BME280;3510;43.200;27.920;2023-02-16T08:36:33;102488.34;;;13.22;35.62
6942;BME280;3510;43.200;27.920;2023-02-16T08:39:02;102509.38;;;13.05;35.65
6942;BME280;3510;43.200;27.920;2023-02-16T08:41:31;102506.84;;;12.96;35.75
6942;BME280;3510;43.200;27.920;2023-02-16T08:43:59;102462.97;;;12.63;35.85
6942;BME280;3510;43.200;27.920;2023-02-16T08:46:27;102441.09;;;12.54;35.64
6942;BME280;3510;43.200;27.920;2023-02-16T08:48:57;102451.44;;;12.24;36.69
6942;BME280;3510;43.200;27.920;2023-02-16T08:51:26;102452.94;;;12.47;36.72
6942;BME280;3510;43.200;27.920;2023-02-16T08:53:56;102489.34;;;12.73;36.27
6942;BME280;3510;43.200;27.920;2023-02-16T08:56:24;102475.19;;;12.75;36.12
6942;BME280;3510;43.200;27.920;2023-02-16T08:58:51;102507.47;;;13.02;35.09
6942;BME280;3510;43.200;27.920;2023-02-16T09:01:18;102468.09;;;12.47;35.46
6942;BME280;3510;43.200;27.920;2023-02-16T09:03:45;102495.50;;;13.17;35.60
6942;BME280;3510;43.200;27.920;2023-02-16T09:06:15;102483.28;;;13.46;34.82
6942;BME280;3510;43.200;27.920;2023-02-16T09:08:42;102392.81;;;12.93;34.49
6942;BME280;3510;43.200;27.920;2023-02-16T09:11:14;102417.34;;;13.27;33.97
6942;BME280;3510;43.200;27.920;2023-02-16T09:13:42;102501.34;;;13.93;33.38
6942;BME280;3510;43.200;27.920;2023-02-16T09:16:12;102407.97;;;13.52;33.42
6942;BME280;3510;43.200;27.920;2023-02-16T09:18:41;102423.00;;;13.60;34.03
6942;BME280;3510;43.200;27.920;2023-02-16T09:21:11;102493.84;;;14.72;32.61
6942;BME280;3510;43.200;27.920;2023-02-16T09:23:41;102494.84;;;15.19;31.97
6942;BME280;3510;43.200;27.920;2023-02-16T09:26:09;102490.47;;;14.99;31.39
6942;BME280;3510;43.200;27.920;2023-02-16T09:28:38;102495.38;;;14.53;32.14
6942;BME280;3510;43.200;27.920;2023-02-16T09:31:09;102388.72;;;14.15;31.73
6942;BME280;3510;43.200;27.920;2023-02-16T09:33:36;102475.78;;;15.14;30.49
6942;BME280;3510;43.200;27.920;2023-02-16T09:36:05;102480.69;;;14.85;29.84
6942;BME280;3510;43.200;27.920;2023-02-16T09:38:33;102479.56;;;15.00;30.09
6942;BME280;3510;43.200;27.920;2023-02-16T09:41:05;102436.16;;;15.53;28.61
6942;BME280;3510;43.200;27.920;2023-02-16T09:43:35;102477.00;;;16.40;27.96
6942;BME280;3510;43.200;27.920;2023-02-16T09:46:11;102456.53;;;15.44;28.98
6942;BME280;3510;43.200;27.920;2023-02-16T09:48:42;102441.16;;;15.89;28.39
6942;BME280;3510;43.200;27.920;2023-02-16T09:51:15;102461.09;;;15.76;27.92
6942;BME280;3510;43.200;27.920;2023-02-16T09:53:46;102435.56;;;16.12;27.39
6942;BME280;3510;43.200;27.920;2023-02-16T09:56:24;102429.91;;;15.49;28.39
6942;BME280;3510;43.200;27.920;2023-02-16T09:58:57;102423.16;;;15.96;26.72
6942;BME280;3510;43.200;27.920;2023-02-16T10:01:31;102448.94;;;16.19;26.78
6942;BME280;3510;43.200;27.920;2023-02-16T10:04:14;102443.53;;;16.06;26.64
6942;BME280;3510;43.200;27.920;2023-02-16T10:06:55;102442.41;;;16.32;26.59
6942;BME280;3510;43.200;27.920;2023-02-16T10:09:26;102434.63;;;16.30;26.15
6942;BME280;3510;43.200;27.920;2023-02-16T10:22:32;102266.72;;;15.88;24.01
6942;BME280;3510;43.200;27.920;2023-02-16T10:25:04;102389.28;;;16.25;24.35
6942;BME280;3510;43.200;27.920;2023-02-16T10:27:37;102280.19;;;15.97;24.28
6942;BME280;3510;43.200;27.920;2023-02-16T10:30:21;102409.19;;;17.19;23.83
6942;BME280;3510;43.200;27.920;2023-02-16T10:32:54;102428.53;;;17.17;24.32
6942;BME280;3510;43.200;27.920;2023-02-16T10:35:26;102431.94;;;17.58;24.04
6942;BME280;3510;43.200;27.920;2023-02-16T10:38:02;102418.66;;;18.35;22.83
6942;BME280;3510;43.200;27.920;2023-02-16T10:43:11;102393.47;;;17.86;23.39
6942;BME280;3510;43.200;27.920;2023-02-16T10:45:45;102428.78;;;17.30;24.32
6942;BME280;3510;43.200;27.920;2023-02-16T10:48:14;102415.50;;;17.75;24.19
6942;BME280;3510;43.200;27.920;2023-02-16T10:50:44;102411.91;;;17.94;23.94
6942;BME280;3510;43.200;27.920;2023-02-16T10:53:21;102405.47;;;17.77;24.27
6942;BME280;3510;43.200;27.920;2023-02-16T10:56:22;102405.41;;;17.97;24.18
6942;BME280;3510;43.200;27.920;2023-02-16T10:58:55;102401.56;;;18.02;24.37
6942;BME280;3510;43.200;27.920;2023-02-16T11:04:30;102407.81;;;18.28;27.48
6942;BME280;3510;43.200;27.920;2023-02-16T11:07:02;102406.59;;;19.68;28.01
6942;BME280;3510;43.200;27.920;2023-02-16T11:09:32;102353.00;;;18.55;32.16
6942;BME280;3510;43.200;27.920;2023-02-16T11:11:58;102353.78;;;18.32;34.33
6942;BME280;3510;43.200;27.920;2023-02-16T11:14:37;102406.44;;;17.69;37.26
6942;BME280;3510;43.200;27.920;2023-02-16T11:17:11;102253.22;;;15.79;40.31
6942;BME280;3510;43.200;27.920;2023-02-16T11:22:34;102350.72;;;16.20;41.18
6942;BME280;3510;43.200;27.920;2023-02-16T11:25:19;102403.97;;;15.70;43.15
6942;BME280;3510;43.200;27.920;2023-02-16T11:28:24;102405.03;;;15.64;43.52
6942;BME280;3510;43.200;27.920;2023-02-16T11:30:58;102398.00;;;15.70;42.94
6942;BME280;3510;43.200;27.920;2023-02-16T11:33:27;102401.59;;;16.01;42.19
6942;BME280;3510;43.200;27.920;2023-02-16T11:35:55;102358.91;;;15.03;43.98
6942;BME280;3510;43.200;27.920;2023-02-16T11:38:26;102369.44;;;15.54;43.25
6942;BME280;3510;43.200;27.920;2023-02-16T11:40:56;102341.16;;;15.59;42.44
6942;BME280;3510;43.200;27.920;2023-02-16T11:43:27;102291.22;;;15.39;42.48
6942;BME280;3510;43.200;27.920;2023-02-16T11:45:58;102365.59;;;15.67;43.24
6942;BME280;3510;43.200;27.920;2023-02-16T11:48:28;102388.97;;;15.55;43.43
6942;BME280;3510;43.200;27.920;2023-02-16T11:50:58;102359.72;;;15.39;43.55
6942;BME280;3510;43.200;27.920;2023-02-16T11:53:28;102351.81;;;15.55;43.10
6942;BME280;3510;43.200;27.920;2023-02-16T11:56:12;102378.63;;;15.43;43.22
6942;BME280;3510;43.200;27.920;2023-02-16T11:58:40;102333.91;;;15.35;42.99
6942;BME280;3510;43.200;27.920;2023-02-16T12:01:17;102374.25;;;15.32;44.31
6942;BME280;3510;43.200;27.920;2023-02-16T12:04:03;102329.25;;;16.56;40.31
6942;BME280;3510;43.200;27.920;2023-02-16T12:06:46;102371.13;;;17.00;38.43
6942;BME280;3510;43.200;27.920;2023-02-16T12:09:24;102369.97;;;16.86;38.33
6942;BME280;3510;43.200;27.920;2023-02-16T12:12:02;102308.66;;;16.03;39.26
6942;BME280;3510;43.200;27.920;2023-02-16T12:14:41;102370.94;;;16.58;38.89
6942;BME280;3510;43.200;27.920;2023-02-16T12:17:20;102356.84;;;16.22;39.74
6942;BME280;3510;43.200;27.920;2023-02-16T12:19:59;102314.75;;;16.05;40.95
6942;BME280;3510;43.200;27.920;2023-02-16T12:22:36;102343.63;;;15.87;42.36
6942;BME280;3510;43.200;27.920;2023-02-16T12:25:22;102339.91;;;16.02;42.42
6942;BME280;3510;43.200;27.920;2023-02-16T12:27:55;102355.88;;;16.01;42.60
6942;BME280;3510;43.200;27.920;2023-02-16T12:30:34;102283.66;;;16.08;42.34
6942;BME280;3510;43.200;27.920;2023-02-16T12:33:13;102352.13;;;16.56;41.49
6942;BME280;3510;43.200;27.920;2023-02-16T12:35:55;102330.59;;;16.32;41.00
6942;BME280;3510;43.200;27.920;2023-02-16T12:38:35;102318.44;;;16.48;39.74
6942;BME280;3510;43.200;27.920;2023-02-16T12:41:18;102279.69;;;16.01;39.97
6942;BME280;3510;43.200;27.920;2023-02-16T12:43:53;102318.94;;;15.94;40.94
6942;BME280;3510;43.200;27.920;2023-02-16T12:46:26;102342.47;;;16.12;41.41
6942;BME280;3510;43.200;27.920;2023-02-16T12:48:57;102282.19;;;15.81;41.00
6942;BME280;3510;43.200;27.920;2023-02-16T12:51:32;102279.91;;;15.84;41.35
6942;BME280;3510;43.200;27.920;2023-02-16T12:54:05;102344.31;;;16.34;41.27
6942;BME280;3510;43.200;27.920;2023-02-16T12:56:38;102276.81;;;15.78;41.19
6942;BME280;3510;43.200;27.920;2023-02-16T12:59:16;102344.06;;;16.02;42.00
6942;BME280;3510;43.200;27.920;2023-02-16T13:01:47;102315.03;;;15.79;42.39
6942;BME280;3510;43.200;27.920;2023-02-16T13:04:19;102341.63;;;15.93;42.66
6942;BME280;3510;43.200;27.920;2023-02-16T13:06:51;102329.97;;;15.57;43.31
6942;BME280;3510;43.200;27.920;2023-02-16T13:09:28;102324.59;;;15.44;43.74
6942;BME280;3510;43.200;27.920;2023-02-16T13:12:06;102325.81;;;15.77;43.28
6942;BME280;3510;43.200;27.920;2023-02-16T13:14:38;102264.91;;;15.77;42.28
6942;BME280;3510;43.200;27.920;2023-02-16T13:17:11;102259.75;;;15.95;41.73
6942;BME280;3510;43.200;27.920;2023-02-16T13:19:42;102323.63;;;15.71;42.80
6942;BME280;3510;43.200;27.920;2023-02-16T13:22:22;102322.06;;;15.92;42.78
6942;BME280;3510;43.200;27.920;2023-02-16T13:25:11;102299.03;;;14.94;43.95
6942;BME280;3510;43.200;27.920;2023-02-16T13:27:50;102297.19;;;15.98;42.65
6942;BME280;3510;43.200;27.920;2023-02-16T13:30:37;102291.44;;;15.80;42.73
6942;BME280;3510;43.200;27.920;2023-02-16T13:33:18;102251.38;;;15.96;41.71
6942;BME280;3510;43.200;27.920;2023-02-16T13:36:06;102318.16;;;16.45;41.53
6942;BME280;3510;43.200;27.920;2023-02-16T13:38:53;102323.59;;;16.29;41.88
6942;BME280;3510;43.200;27.920;2023-02-16T13:41:33;102310.28;;;14.98;44.31
6942;BME280;3510;43.200;27.920;2023-02-16T13:44:08;102259.88;;;15.01;44.05
6942;BME280;3510;43.200;27.920;2023-02-16T13:46:38;102307.84;;;15.46;44.12
6942;BME280;3510;43.200;27.920;2023-02-16T13:49:27;102325.47;;;15.25;45.38
6942;BME280;3510;43.200;27.920;2023-02-16T13:51:55;102325.47;;;15.25;44.60
6942;BME280;3510;43.200;27.920;2023-02-16T13:54:28;102304.72;;;15.30;44.74
6942;BME280;3510;43.200;27.920;2023-02-16T13:57:02;102326.31;;;15.54;44.67
6942;BME280;3510;43.200;27.920;2023-02-16T14:05:30;102312.63;;;15.05;45.72
6942;BME280;3510;43.200;27.920;2023-02-16T14:08:13;102316.97;;;14.87;46.00